createdAt,value
2023-04-18T00:01:36.953Z,42.78
2023-04-18T00:04:04.054Z,40.07
2023-04-18T00:06:34.188Z,40.08
2023-04-18T00:09:00.977Z,39.55
2023-04-18T00:11:27.729Z,40.35
2023-04-18T00:13:54.292Z,38.30
2023-04-18T00:16:20.845Z,39.47
2023-04-18T00:18:47.462Z,40.72
2023-04-18T00:21:14.397Z,44.80
2023-04-18T00:23:40.848Z,39.35
2023-04-18T00:26:07.795Z,41.75
2023-04-18T00:28:34.573Z,41.40
2023-04-18T00:31:01.273Z,42.15
2023-04-18T00:33:27.774Z,40.05
2023-04-18T00:35:54.400Z,40.72
2023-04-18T00:38:21.060Z,40.45
2023-04-18T00:40:47.580Z,41.00
2023-04-18T00:43:14.295Z,42.17
2023-04-18T00:45:41.132Z,39.53
2023-04-18T00:48:09.142Z,40.90
2023-04-18T00:50:37.741Z,40.88
2023-04-18T00:53:04.791Z,38.13
2023-04-18T00:55:31.649Z,41.78
2023-04-18T00:57:58.640Z,41.92
2023-04-18T01:00:28.191Z,42.67
2023-04-18T01:02:56.299Z,43.55
2023-04-18T01:05:23.490Z,38.70
2023-04-18T01:07:50.804Z,40.00
2023-04-18T01:10:19.163Z,39.35
2023-04-18T01:12:46.471Z,41.25
2023-04-18T01:15:13.157Z,40.47
2023-04-18T01:17:39.920Z,42.93
2023-04-18T01:20:07.653Z,40.45
2023-04-18T01:22:34.190Z,39.90
2023-04-18T01:25:00.901Z,39.35
2023-04-18T01:27:27.392Z,38.63
2023-04-18T01:29:54.060Z,40.93
2023-04-18T01:32:21.014Z,40.95
2023-04-18T01:34:47.644Z,39.63
2023-04-18T01:37:14.399Z,36.60
2023-04-18T01:39:40.804Z,37.28
2023-04-18T01:42:07.308Z,36.13
2023-04-18T01:44:33.898Z,33.80
2023-04-18T01:47:00.360Z,36.10
2023-04-18T01:49:26.976Z,36.60
2023-04-18T01:51:53.528Z,36.83
2023-04-18T01:54:20.104Z,35.97
2023-04-18T01:56:46.850Z,34.97
2023-04-18T01:59:13.589Z,33.20
2023-04-18T02:01:40.491Z,32.88
2023-04-18T02:04:07.366Z,33.83
2023-04-18T02:06:33.990Z,32.30
2023-04-18T02:09:00.611Z,32.05
2023-04-18T02:11:27.321Z,34.10
2023-04-18T02:13:54.111Z,29.20
2023-04-18T02:16:20.739Z,33.10
2023-04-18T02:18:47.377Z,30.23
2023-04-18T02:21:13.896Z,34.55
2023-04-18T02:23:40.600Z,31.52
2023-04-18T02:26:07.149Z,29.77
2023-04-18T02:28:33.829Z,24.92
2023-04-18T02:31:00.519Z,27.50
2023-04-18T02:33:27.010Z,26.48
2023-04-18T02:35:53.588Z,25.63
2023-04-18T02:38:20.070Z,25.08
2023-04-18T02:40:46.653Z,25.13
2023-04-18T02:43:13.207Z,26.27
2023-04-18T02:45:39.842Z,25.38
2023-04-18T02:48:06.631Z,26.73
2023-04-18T02:50:33.614Z,26.95
2023-04-18T02:53:00.181Z,29.27
2023-04-18T02:55:26.846Z,28.73
2023-04-18T02:57:53.523Z,27.88
2023-04-18T03:00:20.154Z,27.30
2023-04-18T03:02:46.784Z,32.08
2023-04-18T03:05:13.322Z,27.90
2023-04-18T03:07:40.086Z,25.73
2023-04-18T03:10:07.215Z,26.48
2023-04-18T03:12:33.819Z,24.20
2023-04-18T03:15:00.384Z,25.48
2023-04-18T03:17:28.236Z,26.88
2023-04-18T03:19:54.842Z,24.80
2023-04-18T03:22:21.371Z,26.27
2023-04-18T03:24:47.877Z,24.02
2023-04-18T03:27:14.411Z,25.13
2023-04-18T03:29:41.051Z,24.70
2023-04-18T03:32:07.694Z,25.97
2023-04-18T03:34:34.109Z,24.05
2023-04-18T03:37:00.649Z,22.42
2023-04-18T03:39:27.304Z,22.80
2023-04-18T03:41:53.869Z,23.98
2023-04-18T03:44:20.500Z,24.03
2023-04-18T03:46:47.102Z,24.30
2023-04-18T03:49:13.805Z,24.02
2023-04-18T03:51:45.184Z,24.55
2023-04-18T03:54:11.954Z,24.25
2023-04-18T03:56:38.824Z,24.17
2023-04-18T03:59:05.247Z,23.60
2023-04-18T04:01:32.096Z,24.38
2023-04-18T04:03:58.781Z,23.45
2023-04-18T04:06:25.845Z,22.83
2023-04-18T04:08:52.573Z,24.57
2023-04-18T04:11:19.183Z,24.75
2023-04-18T04:13:45.809Z,24.92
2023-04-18T04:16:12.549Z,25.88
2023-04-18T04:18:39.405Z,22.33
2023-04-18T04:21:06.090Z,21.73
2023-04-18T04:23:32.868Z,22.52
2023-04-18T04:25:59.501Z,22.95
2023-04-18T04:28:25.986Z,22.38
2023-04-18T04:30:53.281Z,20.67
2023-04-18T04:33:21.021Z,24.93
2023-04-18T04:35:47.902Z,26.70
2023-04-18T04:38:14.524Z,25.52
2023-04-18T04:40:41.935Z,22.33
2023-04-18T04:43:08.949Z,24.08
2023-04-18T04:45:35.883Z,22.83
2023-04-18T04:48:02.487Z,22.60
2023-04-18T04:50:29.158Z,24.52
2023-04-18T04:52:55.982Z,24.00
2023-04-18T04:55:22.873Z,23.40
2023-04-18T04:57:49.476Z,21.30
2023-04-18T05:00:16.813Z,26.08
2023-04-18T05:02:43.834Z,23.23
2023-04-18T05:05:10.850Z,22.73
2023-04-18T05:07:37.304Z,23.70
2023-04-18T05:10:04.283Z,22.73
2023-04-18T05:12:31.018Z,22.67
2023-04-18T05:14:57.612Z,21.90
2023-04-18T05:17:24.420Z,21.90
2023-04-18T05:19:51.449Z,23.25
2023-04-18T05:22:18.519Z,21.60
2023-04-18T05:24:45.450Z,24.02
2023-04-18T05:27:15.454Z,21.73
2023-04-18T05:29:44.022Z,21.83
2023-04-18T05:32:10.725Z,22.88
2023-04-18T05:34:38.748Z,21.63
2023-04-18T05:37:05.852Z,25.17
2023-04-18T05:39:32.509Z,20.48
2023-04-18T05:41:59.023Z,23.73
2023-04-18T05:44:25.804Z,20.38
2023-04-18T05:46:52.466Z,20.53
2023-04-18T05:49:19.784Z,21.60
2023-04-18T05:51:46.733Z,22.80
2023-04-18T05:54:13.539Z,22.40
2023-04-18T05:56:40.676Z,20.85
2023-04-18T05:59:07.408Z,21.93
2023-04-18T06:01:34.337Z,23.45
2023-04-18T06:04:01.080Z,23.30
2023-04-18T06:06:27.887Z,21.08
2023-04-18T06:08:54.500Z,22.25
2023-04-18T06:11:20.989Z,25.60
2023-04-18T06:13:47.512Z,20.27
2023-04-18T06:16:14.364Z,21.90
2023-04-18T06:18:41.147Z,20.75
2023-04-18T06:21:07.909Z,21.98
2023-04-18T06:23:34.587Z,20.53
2023-04-18T06:26:01.298Z,20.95
2023-04-18T06:28:28.059Z,21.20
2023-04-18T06:30:54.591Z,23.30
2023-04-18T06:33:21.101Z,19.85
2023-04-18T06:35:47.561Z,22.03
2023-04-18T06:38:14.488Z,21.35
2023-04-18T06:40:41.250Z,21.77
2023-04-18T06:43:07.944Z,20.42
2023-04-18T06:45:35.637Z,20.20
2023-04-18T06:48:05.327Z,21.87
2023-04-18T06:50:32.182Z,21.40
2023-04-18T06:52:58.801Z,21.75
2023-04-18T06:55:25.489Z,21.17
2023-04-18T06:57:52.193Z,19.90
2023-04-18T07:00:19.142Z,19.90
2023-04-18T07:02:45.818Z,22.02
2023-04-18T07:05:12.780Z,21.42
2023-04-18T07:07:39.449Z,21.98
2023-04-18T07:10:07.007Z,22.70
2023-04-18T07:12:33.665Z,21.07
2023-04-18T07:15:00.332Z,21.45
2023-04-18T07:17:26.901Z,20.85
2023-04-18T07:19:53.547Z,21.48
2023-04-18T07:22:20.165Z,20.50
2023-04-18T07:24:46.797Z,21.20
2023-04-18T07:27:14.575Z,21.02
2023-04-18T07:29:41.383Z,22.23
2023-04-18T07:32:08.616Z,22.10
2023-04-18T07:34:35.234Z,25.02
2023-04-18T07:37:01.853Z,23.37
2023-04-18T07:39:28.361Z,22.17
2023-04-18T07:41:55.009Z,20.55
2023-04-18T07:44:21.677Z,20.58
2023-04-18T07:46:48.195Z,22.13
2023-04-18T07:49:15.274Z,19.80
2023-04-18T07:51:42.037Z,18.65
2023-04-18T07:54:08.610Z,20.42
2023-04-18T07:56:35.034Z,18.90
2023-04-18T07:59:01.497Z,21.25
2023-04-18T08:01:28.172Z,20.27
2023-04-18T08:03:55.293Z,20.02
2023-04-18T08:06:22.124Z,20.65
2023-04-18T08:08:48.797Z,22.45
2023-04-18T08:11:15.484Z,22.27
2023-04-18T08:13:42.224Z,20.63
2023-04-18T08:16:09.395Z,19.63
2023-04-18T08:18:36.385Z,19.15
2023-04-18T08:21:03.111Z,18.70
2023-04-18T08:23:29.748Z,19.50
2023-04-18T08:25:56.501Z,21.27
2023-04-18T08:28:23.192Z,18.80
2023-04-18T08:30:49.819Z,20.17
2023-04-18T08:33:16.408Z,21.83
2023-04-18T08:35:43.348Z,19.50
2023-04-18T08:38:10.031Z,19.60
2023-04-18T08:40:37.780Z,19.92
2023-04-18T08:43:07.012Z,20.00
2023-04-18T08:45:33.769Z,19.77
2023-04-18T08:48:00.382Z,19.75
2023-04-18T08:50:27.311Z,20.07
2023-04-18T08:52:55.209Z,19.88
2023-04-18T08:55:21.868Z,20.65
2023-04-18T08:57:48.734Z,18.20
2023-04-18T09:00:17.739Z,19.92
2023-04-18T09:02:45.042Z,19.33
2023-04-18T09:05:12.133Z,20.90
2023-04-18T09:07:38.751Z,18.00
2023-04-18T09:10:05.812Z,18.77
2023-04-18T09:12:33.631Z,18.75
2023-04-18T09:15:15.543Z,18.77
2023-04-18T09:17:46.751Z,21.25
2023-04-18T09:20:13.689Z,20.20
2023-04-18T09:22:46.670Z,19.73
2023-04-18T09:25:25.272Z,18.63
2023-04-18T09:27:52.328Z,19.30
2023-04-18T09:30:36.962Z,19.65
2023-04-18T09:33:05.975Z,18.50
2023-04-18T09:35:32.855Z,18.20
2023-04-18T09:37:59.545Z,17.85
2023-04-18T09:40:27.244Z,18.50
2023-04-18T09:42:57.134Z,18.55
2023-04-18T09:45:24.898Z,18.23
2023-04-18T09:47:52.836Z,21.80
2023-04-18T09:50:19.974Z,18.13
2023-04-18T09:52:48.357Z,15.93
2023-04-18T09:55:17.606Z,18.48
2023-04-18T09:57:48.399Z,18.15
2023-04-18T10:00:19.253Z,17.30
2023-04-18T10:02:56.400Z,18.00
2023-04-18T10:05:26.681Z,16.63
2023-04-18T10:07:54.176Z,18.40
2023-04-18T10:10:21.254Z,18.85
2023-04-18T10:12:49.229Z,19.70
2023-04-18T10:15:17.706Z,18.48
2023-04-18T10:18:14.196Z,17.23
2023-04-18T10:20:41.591Z,17.17
2023-04-18T10:23:40.610Z,16.17
2023-04-18T10:26:08.559Z,16.73
2023-04-18T10:28:58.898Z,16.52
2023-04-18T10:31:29.349Z,16.20
2023-04-18T10:34:05.107Z,17.02
2023-04-18T10:36:33.047Z,17.13
2023-04-18T10:39:20.669Z,16.42
2023-04-18T10:41:51.053Z,15.65
2023-04-18T10:44:19.230Z,17.80
2023-04-18T10:46:52.139Z,15.98
2023-04-18T10:49:32.576Z,15.73
2023-04-18T10:52:01.268Z,16.77
2023-04-18T10:54:49.377Z,16.20
2023-04-18T10:57:16.193Z,16.70
2023-04-18T10:59:46.023Z,16.30
2023-04-18T11:02:33.160Z,16.25
2023-04-18T11:05:01.723Z,15.25
2023-04-18T11:07:44.878Z,17.45
2023-04-18T11:10:12.185Z,15.53
2023-04-18T11:12:41.139Z,14.85
2023-04-18T11:15:13.983Z,15.05
2023-04-18T11:17:40.964Z,15.43
2023-04-18T11:20:09.574Z,13.77
2023-04-18T11:22:53.123Z,13.77
2023-04-18T11:25:24.268Z,13.32
2023-04-18T11:27:51.478Z,12.82
2023-04-18T11:30:18.785Z,14.52
2023-04-18T11:32:45.452Z,14.32
2023-04-18T11:35:13.900Z,12.80
2023-04-18T11:37:41.943Z,12.82
2023-04-18T11:40:13.006Z,13.32
2023-04-18T11:42:41.017Z,12.77
2023-04-18T11:45:16.731Z,12.40
2023-04-18T11:47:44.937Z,11.43
2023-04-18T11:50:12.987Z,11.40
2023-04-18T11:52:41.840Z,11.18
2023-04-18T11:55:11.519Z,9.85
2023-04-18T11:57:38.024Z,9.00
2023-04-18T12:00:05.321Z,8.67
2023-04-18T12:02:43.800Z,9.63
2023-04-18T12:05:11.650Z,11.00
2023-04-18T12:07:45.289Z,9.40
2023-04-18T12:10:28.699Z,10.45
2023-04-18T12:12:59.966Z,10.23
2023-04-18T12:15:28.486Z,8.98
2023-04-18T12:18:00.927Z,8.80
2023-04-18T12:20:39.396Z,8.82
2023-04-18T12:23:06.485Z,9.48
2023-04-18T12:25:33.289Z,9.23
2023-04-18T12:28:12.832Z,10.45
2023-04-18T12:30:39.408Z,10.73
2023-04-18T12:33:06.092Z,10.82
2023-04-18T12:35:32.936Z,12.07
2023-04-18T12:38:01.256Z,13.03
2023-04-18T12:40:29.323Z,12.48
2023-04-18T12:42:56.665Z,12.95
2023-04-18T12:45:24.050Z,13.18
2023-04-18T12:47:51.920Z,13.50
2023-04-18T12:50:21.286Z,14.30
2023-04-18T12:52:48.302Z,16.20
2023-04-18T12:55:15.576Z,13.98
2023-04-18T12:57:43.231Z,14.75
2023-04-18T13:00:11.363Z,16.40
2023-04-18T13:02:39.484Z,15.00
2023-04-18T13:05:15.047Z,15.30
2023-04-18T13:07:42.978Z,13.95
2023-04-18T13:10:11.789Z,14.40
2023-04-18T13:12:39.949Z,13.80
2023-04-18T13:15:07.856Z,15.23
2023-04-18T13:17:34.954Z,14.70
2023-04-18T13:20:01.820Z,14.40
2023-04-18T13:22:28.391Z,15.05
2023-04-18T13:24:54.996Z,15.80
2023-04-18T13:27:21.652Z,15.07
2023-04-18T13:29:48.446Z,15.15
2023-04-18T13:32:15.303Z,17.75
2023-04-18T13:34:48.813Z,16.10
2023-04-18T13:37:15.713Z,15.35
2023-04-18T13:39:42.582Z,15.07
2023-04-18T13:42:09.452Z,15.68
2023-04-18T13:44:37.329Z,16.73
2023-04-18T13:47:05.817Z,16.58
2023-04-18T13:49:33.391Z,16.27
2023-04-18T13:52:00.160Z,17.37
2023-04-18T13:54:28.401Z,16.70
2023-04-18T13:57:00.373Z,18.85
2023-04-18T13:59:27.199Z,15.40
2023-04-18T14:01:54.917Z,17.27
2023-04-18T14:04:22.231Z,15.93
2023-04-18T14:06:49.986Z,16.20
2023-04-18T14:09:17.210Z,17.58
2023-04-18T14:11:45.194Z,15.70
2023-04-18T14:14:12.019Z,17.67
2023-04-18T14:16:38.894Z,16.07
2023-04-18T14:19:05.810Z,17.98
2023-04-18T14:21:32.373Z,16.92
2023-04-18T14:23:59.016Z,16.67
2023-04-18T14:26:25.799Z,17.95
2023-04-18T14:28:52.452Z,16.10
2023-04-18T14:31:19.294Z,16.98
2023-04-18T14:33:46.145Z,19.30
2023-04-18T14:36:12.758Z,19.42
2023-04-18T14:38:39.292Z,18.40
2023-04-18T14:41:05.800Z,20.87
2023-04-18T14:43:32.638Z,20.33
2023-04-18T14:45:59.826Z,21.63
2023-04-18T14:48:27.580Z,21.05
2023-04-18T14:50:59.350Z,22.02
2023-04-18T14:53:26.108Z,23.13
2023-04-18T14:55:52.840Z,23.20
2023-04-18T14:58:20.084Z,22.30
2023-04-18T15:00:46.764Z,23.15
2023-04-18T15:03:13.666Z,22.95
2023-04-18T15:05:40.452Z,23.33
2023-04-18T15:08:07.034Z,22.92
2023-04-18T15:10:33.495Z,22.73
2023-04-18T15:13:00.104Z,21.08
2023-04-18T15:15:26.607Z,20.00
2023-04-18T15:17:53.311Z,19.27
2023-04-18T15:20:20.783Z,21.88
2023-04-18T15:22:49.237Z,22.92
2023-04-18T15:25:15.979Z,20.58
2023-04-18T15:27:43.179Z,23.00
2023-04-18T15:30:10.580Z,22.10
2023-04-18T15:32:37.316Z,22.52
2023-04-18T15:35:04.346Z,23.83
2023-04-18T15:37:30.943Z,28.52
2023-04-18T15:39:57.456Z,25.08
2023-04-18T15:42:23.968Z,23.40
2023-04-18T15:44:50.491Z,23.85
2023-04-18T15:47:17.087Z,24.27
2023-04-18T15:49:43.599Z,24.33
2023-04-18T15:52:10.522Z,23.20
2023-04-18T15:54:40.637Z,23.17
2023-04-18T15:57:07.507Z,24.35
2023-04-18T15:59:33.987Z,25.25
2023-04-18T16:02:00.667Z,26.02
2023-04-18T16:04:27.644Z,23.88
2023-04-18T16:06:55.073Z,22.63
2023-04-18T16:09:21.567Z,23.45
2023-04-18T16:11:48.218Z,24.05
2023-04-18T16:14:14.999Z,22.42
2023-04-18T16:16:41.806Z,23.02
2023-04-18T16:19:08.385Z,23.33
2023-04-18T16:21:35.099Z,25.08
2023-04-18T16:24:01.845Z,22.63
2023-04-18T16:26:28.489Z,24.00
2023-04-18T16:28:55.330Z,24.40
2023-04-18T16:31:22.075Z,23.07
2023-04-18T16:33:48.843Z,24.45
2023-04-18T16:36:15.382Z,24.25
2023-04-18T16:38:41.868Z,23.42
2023-04-18T16:41:08.512Z,24.75
2023-04-18T16:43:35.013Z,22.63
2023-04-18T16:46:01.995Z,22.80
2023-04-18T16:48:28.659Z,25.33
2023-04-18T16:50:55.703Z,25.35
2023-04-18T16:53:23.115Z,24.38
2023-04-18T16:55:49.993Z,25.87
2023-04-18T16:58:16.873Z,23.33
2023-04-18T17:00:43.506Z,25.90
2023-04-18T17:03:10.293Z,23.77
2023-04-18T17:05:37.380Z,24.88
2023-04-18T17:08:04.143Z,23.67
2023-04-18T17:10:30.837Z,24.90
2023-04-18T17:12:58.364Z,23.77
2023-04-18T17:15:26.141Z,23.77
2023-04-18T17:17:52.856Z,23.52
2023-04-18T17:20:19.819Z,24.67
2023-04-18T17:22:46.522Z,23.70
2023-04-18T17:25:13.317Z,25.80
2023-04-18T17:27:40.379Z,25.48
2023-04-18T17:30:07.513Z,24.23
2023-04-18T17:32:34.202Z,25.23
2023-04-18T17:35:00.888Z,26.38
2023-04-18T17:37:27.354Z,25.30
2023-04-18T17:39:54.008Z,24.92
2023-04-18T17:42:20.624Z,25.00
2023-04-18T17:44:47.398Z,23.83
2023-04-18T17:47:14.116Z,26.77
2023-04-18T17:49:40.947Z,25.42
2023-04-18T17:52:07.489Z,25.70
2023-04-18T17:54:34.284Z,25.38
2023-04-18T17:57:00.960Z,26.27
2023-04-18T17:59:27.500Z,23.02
2023-04-18T18:01:54.433Z,25.80
2023-04-18T18:04:22.967Z,24.67
2023-04-18T18:06:55.281Z,23.92
2023-04-18T18:09:21.855Z,22.83
2023-04-18T18:11:48.668Z,25.67
2023-04-18T18:14:15.721Z,25.10
2023-04-18T18:16:42.465Z,26.92
2023-04-18T18:19:09.015Z,26.02
2023-04-18T18:21:35.615Z,24.10
2023-04-18T18:24:02.447Z,25.15
2023-04-18T18:26:29.034Z,23.63
2023-04-18T18:28:55.735Z,25.38
2023-04-18T18:31:22.423Z,23.73
2023-04-18T18:33:49.233Z,25.10
2023-04-18T18:36:15.751Z,24.58
2023-04-18T18:38:42.430Z,23.55
2023-04-18T18:41:09.174Z,24.50
2023-04-18T18:43:35.655Z,24.90
2023-04-18T18:46:02.322Z,26.90
2023-04-18T18:48:29.185Z,24.90
2023-04-18T18:50:55.773Z,26.65
2023-04-18T18:53:22.543Z,25.40
2023-04-18T18:55:49.348Z,26.30
2023-04-18T18:58:15.900Z,26.40
2023-04-18T19:00:42.551Z,25.30
2023-04-18T19:03:09.170Z,27.42
2023-04-18T19:05:36.508Z,25.98
2023-04-18T19:08:03.033Z,25.30
2023-04-18T19:10:29.607Z,26.37
2023-04-18T19:12:56.346Z,25.15
2023-04-18T19:15:23.245Z,25.38
2023-04-18T19:17:49.875Z,26.48
2023-04-18T19:20:17.003Z,24.33
2023-04-18T19:22:43.540Z,27.07
2023-04-18T19:25:10.352Z,25.40
2023-04-18T19:27:36.975Z,25.60
2023-04-18T19:30:03.972Z,26.00
2023-04-18T19:32:30.794Z,26.52
2023-04-18T19:34:57.428Z,26.03
2023-04-18T19:37:24.202Z,27.42
2023-04-18T19:39:50.835Z,25.73
2023-04-18T19:42:17.473Z,25.45
2023-04-18T19:44:44.156Z,24.25
2023-04-18T19:47:10.695Z,27.50
2023-04-18T19:49:37.471Z,25.20
2023-04-18T19:52:04.287Z,25.63
2023-04-18T19:54:33.992Z,28.02
2023-04-18T19:57:00.671Z,25.05
2023-04-18T19:59:27.242Z,24.33
2023-04-18T20:01:53.837Z,25.38
2023-04-18T20:04:20.683Z,25.63
2023-04-18T20:06:47.592Z,26.23
2023-04-18T20:09:14.343Z,24.83
2023-04-18T20:11:42.313Z,24.87
2023-04-18T20:14:09.221Z,27.38
2023-04-18T20:16:36.384Z,26.08
2023-04-18T20:19:03.226Z,24.30
2023-04-18T20:21:30.141Z,26.15
2023-04-18T20:23:56.828Z,24.20
2023-04-18T20:26:23.299Z,24.38
2023-04-18T20:28:51.158Z,25.55
2023-04-18T20:31:18.281Z,23.92
2023-04-18T20:33:44.832Z,23.52
2023-04-18T20:36:11.337Z,24.00
2023-04-18T20:38:37.817Z,24.58
2023-04-18T20:41:04.405Z,23.85
2023-04-18T20:43:30.812Z,25.73
2023-04-18T20:45:57.375Z,24.77
2023-04-18T20:48:24.093Z,24.40
2023-04-18T20:50:51.016Z,23.48
2023-04-18T20:53:21.465Z,23.00
2023-04-18T20:55:48.453Z,24.35
2023-04-18T20:58:15.274Z,22.20
2023-04-18T21:00:41.800Z,23.27
2023-04-18T21:03:08.743Z,21.67
2023-04-18T21:05:35.482Z,21.88
2023-04-18T21:08:02.123Z,21.83
2023-04-18T21:10:28.650Z,23.23
2023-04-18T21:12:55.197Z,24.13
2023-04-18T21:15:21.912Z,21.58
2023-04-18T21:17:50.458Z,22.27
2023-04-18T21:20:17.469Z,22.05
2023-04-18T21:22:44.157Z,21.48
2023-04-18T21:25:10.672Z,21.13
2023-04-18T21:27:37.405Z,21.92
2023-04-18T21:30:05.023Z,21.33
2023-04-18T21:32:31.934Z,21.88
2023-04-18T21:34:58.515Z,21.33
2023-04-18T21:37:25.044Z,22.23
2023-04-18T21:39:51.702Z,21.58
2023-04-18T21:42:18.456Z,23.30
2023-04-18T21:44:44.988Z,22.58
2023-04-18T21:47:11.526Z,23.67
2023-04-18T21:49:38.073Z,23.20
2023-04-18T21:52:04.773Z,21.98
2023-04-18T21:54:31.321Z,21.10
2023-04-18T21:56:57.756Z,21.30
2023-04-18T21:59:24.192Z,20.65
2023-04-18T22:01:50.750Z,21.63
2023-04-18T22:04:17.672Z,23.55
2023-04-18T22:06:44.422Z,21.95
2023-04-18T22:09:10.924Z,22.15
2023-04-18T22:11:37.423Z,24.35
2023-04-18T22:14:03.950Z,24.63
2023-04-18T22:16:30.681Z,23.58
2023-04-18T22:18:57.184Z,24.83
2023-04-18T22:21:23.841Z,24.35
2023-04-18T22:23:50.395Z,26.05
2023-04-18T22:26:17.100Z,26.63
2023-04-18T22:28:43.812Z,24.85
2023-04-18T22:31:10.495Z,27.38
2023-04-18T22:33:37.000Z,25.80
2023-04-18T22:36:03.896Z,25.60
2023-04-18T22:38:30.384Z,26.90
2023-04-18T22:40:56.832Z,35.78
2023-04-18T22:43:23.451Z,26.05
2023-04-18T22:45:51.320Z,28.65
2023-04-18T22:48:18.259Z,25.85
2023-04-18T22:50:44.798Z,27.97
2023-04-18T22:53:11.610Z,27.23
2023-04-18T22:55:42.570Z,27.42
2023-04-18T22:58:10.597Z,27.30
2023-04-18T23:00:37.666Z,28.45
2023-04-18T23:03:04.674Z,27.23
2023-04-18T23:05:31.408Z,25.98
2023-04-18T23:08:00.087Z,25.20
2023-04-18T23:10:27.260Z,26.38
2023-04-18T23:12:53.783Z,24.20
2023-04-18T23:15:20.375Z,25.30
2023-04-18T23:17:46.928Z,25.92
2023-04-18T23:20:13.663Z,25.58
2023-04-18T23:22:40.392Z,23.50
2023-04-18T23:25:07.241Z,23.00
2023-04-18T23:27:33.725Z,24.03
2023-04-18T23:30:00.254Z,23.27
2023-04-18T23:32:26.916Z,22.85
2023-04-18T23:34:53.611Z,23.85
2023-04-18T23:37:20.171Z,23.83
2023-04-18T23:39:46.705Z,23.23
2023-04-18T23:42:13.213Z,24.70
2023-04-18T23:44:39.948Z,24.33
2023-04-18T23:47:06.411Z,25.33
2023-04-18T23:49:33.010Z,25.42
2023-04-18T23:51:59.543Z,23.67
2023-04-18T23:54:26.198Z,24.60
2023-04-18T23:56:52.829Z,24.40
2023-04-18T23:59:19.464Z,25.33
